Flight Track Log - Related Links

Times and Time Zones

All times are in EDT time to prevent confusion due to time zone crossing. See the AAL1344 flight status page for this flight to view local times or setup timezone preferences in your user account.

Time Position Orientation Groundspeed Altitude Reporting Facility
EDT Latitude Longitude Course Direction KTS MPH feet Rate Location/Type
Sun 03:29:26 PM 32.7500 -117.2333 90° East 178 205 1,900  Level Southern California TRACON
Sun 03:30:22 PM 32.7592 -117.3050 279° West 203 234 3,500 2,034 Climbing Los Angeles Center
Sun 03:31:00 PM 32.6117 -117.0648 100° East  Level FlightAware Approximate
Sun 03:31:24 PM 32.7064 -117.3422 211° Southwest 250 288 5,900  Level Los Angeles Center
Sun 03:32:00 PM 32.6035 -116.9284 84° East  Level FlightAware Approximate
Sun 03:32:26 PM 32.6592 -117.2742 129° Southeast 268 308 8,500  Level Los Angeles Center
Sun 03:33:00 PM 32.6160 -116.7913 84° East  Level FlightAware Approximate
Sun 03:33:28 PM 32.6428 -117.1869 103° East 282 325 10,300  Level Los Angeles Center
Sun 03:34:00 PM 32.6333 -116.6558 90° East  Level FlightAware Approximate
Sun 03:34:30 PM 32.6250 -117.0797 101° East 334 384 11,600  Level Los Angeles Center
Sun 03:35:32 PM 32.6144 -116.9286 95° East 385 443 13,800 2,129 Climbing Los Angeles Center
Sun 03:36:34 PM 32.6286 -116.7967 83° East 404 465 16,000 2,112 Climbing Los Angeles Center
Sun 03:37:37 PM 32.6411 -116.6600 84° East 415 478 18,200 1,776 Climbing Los Angeles Center
Sun 03:38:39 PM 32.6556 -116.5172 83° East 445 512 19,700 1,790 Climbing Los Angeles Center
Sun 03:39:41 PM 32.6706 -116.3417 84° East 453 521 21,900 1,790 Climbing Los Angeles Center
Sun 03:40:43 PM 32.6858 -116.1931 83° East 461 531 23,400 1,235 Climbing Los Angeles Center
Sun 03:41:57 PM 32.7031 -116.0097 84° East 471 542 24,700 1,279 Climbing Los Angeles Center
Sun 03:42:59 PM 32.7169 -115.8531 84° East 480 552 26,300 1,440 Climbing Los Angeles Center
Sun 03:44:02 PM 32.7317 -115.6961 84° East 480 552 27,700 1,488 Climbing Los Angeles Center
Sun 03:45:04 PM 32.7475 -115.5111 84° East 473 544 29,400 1,355 Climbing Los Angeles Center
Sun 03:46:06 PM 32.7517 -115.3561 88° East 472 543 30,500 1,113 Climbing Los Angeles Center
Sun 03:47:08 PM 32.7572 -115.2000 88° East 474 545 31,700 1,065 Climbing Los Angeles Center
Sun 03:48:10 PM 32.7597 -115.0453 89° East 470 541 32,700 629 Climbing Los Angeles Center
Sun 03:49:12 PM 32.7644 -114.8931 88° East 464 534 33,000 97 Climbing Los Angeles Center
Sun 03:50:14 PM 32.7672 -114.7397 89° East 464 534 32,900  Descending Los Angeles Center
Sun 03:51:16 PM 32.7719 -114.5572 88° East 459 528 33,000  Climbing Los Angeles Center
Sun 03:52:18 PM 32.7736 -114.4064 89° East 459 528 32,900 -48 Descending Los Angeles Center
Sun 03:53:20 PM 32.7736 -114.2547 90° East 460 529 32,900  Level Los Angeles Center
Sun 03:54:23 PM 32.7753 -114.1022 89° East 461 531 32,900 48 Level Los Angeles Center
Sun 03:55:25 PM 32.7803 -113.9494 88° East 464 534 33,000 48 Climbing Los Angeles Center
Sun 03:56:27 PM 32.8069 -113.7675 80° East 466 536 33,000 -48 Level Los Angeles Center
Sun 03:57:29 PM 32.8281 -113.6139 81° East 469 540 32,900 -48 Descending Los Angeles Center
Sun 03:58:31 PM 32.8494 -113.4611 80° East 470 541 32,900 48 Level Los Angeles Center
Sun 03:59:33 PM 32.8703 -113.3178 80° East 472 543 33,000  Climbing Los Angeles Center
Sun 04:00:35 PM 32.8914 -113.1631 81° East 473 544 32,900 -44 Descending Los Angeles Center
Sun 04:01:49 PM 32.9206 -112.9442 81° East 473 544 32,900 44 Level Albuquerque Center
Sun 04:02:51 PM 32.9419 -112.7889 81° East 472 543 33,000 48 Climbing Albuquerque Center
Sun 04:03:53 PM 32.9642 -112.6331 80° East 475 547 33,000  Level Albuquerque Center
Sun 04:04:55 PM 32.9972 -112.4817 75° East 473 544 33,000  Level Albuquerque Center
Sun 04:05:56 PM 33.0286 -112.3292 76° East 473 544 33,000  Level Albuquerque Center
Sun 04:06:58 PM 33.0639 -112.1656 76° East 472 543 33,000  Level Albuquerque Center
Sun 04:08:00 PM 33.0964 -112.0144 76° East 473 544 33,000  Level Albuquerque Center
Sun 04:09:02 PM 33.1283 -111.8628 76° East 474 545 33,000  Level Albuquerque Center
Sun 04:10:04 PM 33.1597 -111.7111 76° East 476 548 33,000  Level Albuquerque Center
Sun 04:11:05 PM 33.1919 -111.5611 76° East 471 542 33,000  Level Albuquerque Center
Sun 04:12:07 PM 33.2297 -111.3800 76° East 472 543 33,000  Level Albuquerque Center
Sun 04:13:09 PM 33.2600 -111.2283 77° East 474 545 33,000  Level Albuquerque Center
Sun 04:14:11 PM 33.2911 -111.0764 76° East 473 544 33,000  Level Albuquerque Center
Sun 04:15:12 PM 33.3200 -110.9244 77° East 472 543 33,000  Level Albuquerque Center
Sun 04:16:14 PM 33.3500 -110.7725 77° East 473 544 33,000  Level Albuquerque Center
Sun 04:17:16 PM 33.3806 -110.6211 76° East 471 542 33,000  Level Albuquerque Center
Sun 04:18:18 PM 33.4156 -110.4386 77° East 471 542 33,000  Level Albuquerque Center
Sun 04:19:20 PM 33.4456 -110.2864 77° East 471 542 33,000  Level Albuquerque Center
Sun 04:20:22 PM 33.4750 -110.1361 77° East 468 539 33,000 -48 Level Albuquerque Center
Sun 04:21:24 PM 33.5042 -109.9811 77° East 471 542 32,900  Descending Albuquerque Center
Sun 04:22:25 PM 33.5456 -109.8356 71° East 467 537 33,000  Climbing Albuquerque Center
Sun 04:23:27 PM 33.5881 -109.6906 71° East 463 533 32,900 -48 Descending Albuquerque Center
Sun 04:24:29 PM 33.6336 -109.5167 72° East 457 526 32,900 48 Level Albuquerque Center
Sun 04:25:31 PM 33.6644 -109.3647 76° East 471 542 33,000  Climbing Albuquerque Center
Sun 04:26:33 PM 33.6822 -109.2142 82° East 461 531 32,900  Descending Albuquerque Center
Sun 04:27:35 PM 33.7058 -109.0622 79° East 466 536 33,000 48 Climbing Albuquerque Center
Sun 04:28:37 PM 33.7244 -108.8894 83° East 467 537 33,000  Level Albuquerque Center
Sun 04:29:38 PM 33.7369 -108.7528 84° East 462 532 33,000  Level Albuquerque Center
Sun 04:30:40 PM 33.7781 -108.5786 74° East 462 532 33,000 -48 Level Albuquerque Center
Sun 04:31:42 PM 33.8208 -108.4239 72° East 469 540 32,900  Descending Albuquerque Center
Sun 04:32:44 PM 33.8614 -108.2753 72° East 470 541 33,000  Climbing Albuquerque Center
Sun 04:33:46 PM 33.9017 -108.1272 72° East 467 537 32,900  Descending Albuquerque Center
Sun 04:34:48 PM 33.9497 -107.9814 68° East 470 541 33,000 48 Climbing Albuquerque Center
Sun 04:35:50 PM 34.0006 -107.8367 67° East 471 542 33,000 -48 Level Albuquerque Center
Sun 04:36:52 PM 34.0508 -107.6914 67° East 470 541 32,900 -48 Descending Albuquerque Center
Sun 04:37:54 PM 34.1136 -107.5567 61° Northeast 463 533 32,900  Level Albuquerque Center
Sun 04:38:55 PM 34.1506 -107.3775 76° East 464 534 32,900 49 Level Albuquerque Center
Sun 04:39:57 PM 34.1761 -107.2236 79° East 466 536 33,000 48 Climbing Albuquerque Center
Sun 04:40:59 PM 34.2336 -107.0861 63° Northeast 463 533 33,000  Level Albuquerque Center
Sun 04:42:01 PM 34.2825 -106.9419 68° East 465 535 33,000  Level Albuquerque Center
Sun 04:43:03 PM 34.3283 -106.7794 71° East 457 526 33,000  Level Albuquerque Center
Sun 04:44:05 PM 34.3689 -106.6319 72° East 461 531 33,000  Level Albuquerque Center
Sun 04:45:07 PM 34.4103 -106.4828 71° East 468 539 33,000  Level Albuquerque Center
Sun 04:46:09 PM 34.4494 -106.3342 72° East 469 540 33,000  Level Albuquerque Center
Sun 04:47:11 PM 34.4883 -106.1789 73° East 460 529 33,000  Level Albuquerque Center
Sun 04:48:13 PM 34.5283 -106.0308 72° East 459 528 33,000  Level Albuquerque Center
Sun 04:49:14 PM 34.5603 -105.8778 76° East 463 533 33,000  Level Albuquerque Center
Sun 04:50:16 PM 34.5792 -105.6958 83° East 462 532 33,000  Level Albuquerque Center
Sun 04:51:18 PM 34.5739 -105.5389 92° East 462 532 33,000  Level Albuquerque Center
Sun 04:52:20 PM 34.5700 -105.3833 92° East 460 529 33,000  Level Albuquerque Center
Sun 04:53:22 PM 34.5672 -105.2281 91° East 458 527 33,000  Level Albuquerque Center
Sun 04:54:24 PM 34.5658 -105.0717 91° East 460 529 33,000  Level Albuquerque Center
Sun 04:56:28 PM 34.5586 -104.7586 92° East 462 532 33,000  Level Albuquerque Center
Sun 04:57:30 PM 34.5542 -104.5761 92° East 461 531 33,000  Level Albuquerque Center
Sun 04:58:32 PM 34.5514 -104.4225 91° East 457 526 33,000  Level Albuquerque Center
Sun 04:59:34 PM 34.5467 -104.2681 92° East 458 527 33,000  Level Albuquerque Center
Sun 05:00:36 PM 34.5428 -104.1131 92° East 458 527 33,000  Level Albuquerque Center
Sun 05:01:38 PM 34.5367 -103.9564 93° East 462 532 33,000  Level Albuquerque Center
Sun 05:02:39 PM 34.5319 -103.8008 92° East 462 532 33,000  Level Albuquerque Center
Sun 05:03:41 PM 34.5253 -103.6203 93° East 459 528 33,000  Level Albuquerque Center
Sun 05:04:43 PM 34.5206 -103.4647 92° East 460 529 33,000  Level Albuquerque Center
Sun 05:05:45 PM 34.5150 -103.3106 92° East 457 526 33,000  Level Albuquerque Center
Sun 05:06:47 PM 34.5089 -103.1569 93° East 455 524 33,000  Level Albuquerque Center
Sun 05:07:48 PM 34.5028 -103.0019 93° East 456 525 33,000  Level Albuquerque Center
Sun 05:08:50 PM 34.4961 -102.8483 93° East 456 525 33,000  Level Albuquerque Center
Sun 05:09:52 PM 34.4822 -102.6939 96° East 455 524 33,000  Level Albuquerque Center
Sun 05:10:54 PM 34.4664 -102.5442 97° East 452 520 33,000  Level Albuquerque Center
Sun 05:11:55 PM 34.4511 -102.3928 97° East 453 521 33,000  Level Albuquerque Center
Sun 05:12:57 PM 34.4319 -102.2117 97° East 454 522 33,000  Level Albuquerque Center
Sun 05:13:59 PM 34.4153 -102.0611 98° East 454 522 33,000 -339 Level Albuquerque Center
Sun 05:15:01 PM 34.3992 -101.9114 97° East 453 521 32,300 -968 Descending Albuquerque Center
Sun 05:16:03 PM 34.3833 -101.7614 97° East 452 520 31,000 -780 Descending Albuquerque Center
Sun 05:16:41 PM 34.3706 -101.6528 98° East 451 519 31,000  Level Fort Worth Center
Sun 05:17:42 PM 34.3522 -101.5136 99° East 451 519 31,000  Level Fort Worth Center
Sun 05:18:42 PM 34.3361 -101.3644 97° East 456 525 31,000  Level Fort Worth Center
Sun 05:19:42 PM 34.3181 -101.2103 98° East 456 525 31,000  Level Fort Worth Center
Sun 05:20:42 PM 34.2981 -101.0411 98° East 461 531 31,000  Level Fort Worth Center
Sun 05:21:42 PM 34.2772 -100.8894 99° East 461 531 31,000  Level Fort Worth Center
Sun 05:22:41 PM 34.2458 -100.7425 104° East 456 525 31,000  Level Fort Worth Center
Sun 05:23:42 PM 34.2100 -100.5928 106° East 456 525 31,000  Level Fort Worth Center
Sun 05:24:41 PM 34.1783 -100.4461 105° East 456 525 31,000  Level Fort Worth Center
Sun 05:25:41 PM 34.1442 -100.2944 105° East 461 531 31,000  Level Fort Worth Center
Sun 05:26:42 PM 34.1100 -100.1503 106° East 461 531 31,000  Level Fort Worth Center
Sun 05:27:41 PM 34.0736 -99.9961 106° East 461 531 31,000  Level Fort Worth Center
Sun 05:28:41 PM 34.0389 -99.8472 106° East 461 531 31,000  Level Fort Worth Center
Sun 05:29:42 PM 34.0064 -99.7011 105° East 461 531 31,000  Level Fort Worth Center
Sun 05:30:41 PM 33.9714 -99.5547 106° East 461 531 31,000  Level Fort Worth Center
Sun 05:31:42 PM 33.9342 -99.4061 107° East 461 531 31,000  Level Fort Worth Center
Sun 05:32:42 PM 33.8989 -99.2578 106° East 461 531 31,000  Level Fort Worth Center
Sun 05:33:42 PM 33.8653 -99.1269 107° East 461 531 31,000  Level Fort Worth Center
Sun 05:34:41 PM 33.8294 -98.9836 107° East 455 524 31,000 -950 Level Fort Worth Center
Sun 05:35:42 PM 33.7917 -98.8256 106° East 455 524 29,100 -2,579 Descending Fort Worth Center
Sun 05:36:42 PM 33.7558 -98.6775 106° East 450 518 25,800 -2,672 Descending Fort Worth Center
Sun 05:37:41 PM 33.7028 -98.5444 116° Southeast 450 518 23,800 -1,750 Descending Fort Worth Center
Sun 05:38:42 PM 33.6600 -98.4242 113° Southeast 445 512 22,300 -1,800 Descending Fort Worth Center
Sun 05:39:41 PM 33.6089 -98.2739 112° Southeast 440 506 20,200 -1,900 Descending Fort Worth Center
Sun 05:40:42 PM 33.5639 -98.1464 113° Southeast 435 501 18,500 -1,934 Descending Fort Worth Center
Sun 05:41:42 PM 33.5228 -98.0314 113° Southeast 422 486 16,300 -2,370 Descending Fort Worth Center
Sun 05:42:41 PM 33.4753 -97.8992 113° Southeast 402 463 13,800 -2,420 Descending Fort Worth Center
Sun 05:43:41 PM 33.4403 -97.7992 113° Southeast 377 434 11,500 -1,438 Descending Fort Worth Center
Sun 05:44:42 PM 33.3967 -97.6822 114° Southeast 353 406 10,900 -645 Descending Fort Worth Center
Sun 05:45:42 PM 33.3508 -97.6075 126° Southeast 307 353 10,200 -1,059 Descending Fort Worth Center
Sun 05:46:41 PM 33.3008 -97.5478 135° Southeast 280 322 8,800 -1,500 Descending Fort Worth Center
Sun 05:47:42 PM 33.2633 -97.4606 117° Southeast 275 316 7,200 -1,488 Descending Fort Worth Center
Sun 05:48:42 PM 33.2425 -97.3836 108° East 265 305 5,800 -1,008 Descending Fort Worth Center
Sun 05:49:53 PM 33.2167 -97.2667 105° East 265 305 5,000 -394 Descending Dallas / Fort Worth TRACON
Sun 05:50:59 PM 33.1833 -97.1833 116° Southeast 226 260 4,900 -500 Descending Dallas / Fort Worth TRACON
Sun 05:51:53 PM 33.1667 -97.1333 112° Southeast 213 245 4,000 -824 Descending Dallas / Fort Worth TRACON
Sun 05:52:41 PM 33.1272 -97.1083 152° Southeast 207 238 3,500 -625 Descending Fort Worth Center

Login

Don't have an account? Register now (free) for customized features, flight alerts, and more!